RJTQ(METAR)
05/27 16:00
RJTQ 270700Z 21011KT 9999 SCT023 24/18 Q1011 RMK A2985=
戻る
トップページへ戻る
IMOC Co,.Ltd.